sensor_id;sensor_type;location;lat;lon;timestamp;temperature;humidity
73875;HTU21D;62209;47.568;7.558;2023-05-01T00:02:30;12.70;94.84
73875;HTU21D;62209;47.568;7.558;2023-05-01T00:17:36;12.65;95.52
73875;HTU21D;62209;47.568;7.558;2023-05-01T00:32:42;12.65;95.01
73875;HTU21D;62209;47.568;7.558;2023-05-01T00:47:48;12.48;95.54
73875;HTU21D;62209;47.568;7.558;2023-05-01T01:02:54;12.42;97.31
73875;HTU21D;62209;47.568;7.558;2023-05-01T01:18:01;12.37;98.06
73875;HTU21D;62209;47.568;7.558;2023-05-01T01:48:49;12.05;99.51
73875;HTU21D;62209;47.568;7.558;2023-05-01T02:03:57;12.04;100.55
73875;HTU21D;62209;47.568;7.558;2023-05-01T02:19:05;12.06;102.22
73875;HTU21D;62209;47.568;7.558;2023-05-01T02:34:11;11.92;101.54
73875;HTU21D;62209;47.568;7.558;2023-05-01T02:49:17;11.97;102.91
73875;HTU21D;62209;47.568;7.558;2023-05-01T03:04:24;11.92;102.06
73875;HTU21D;62209;47.568;7.558;2023-05-01T03:19:30;11.85;103.64
73875;HTU21D;62209;47.568;7.558;2023-05-01T03:34:36;11.92;104.11
73875;HTU21D;62209;47.568;7.558;2023-05-01T03:49:42;11.99;105.01
73875;HTU21D;62209;47.568;7.558;2023-05-01T04:04:47;11.73;106.92
73875;HTU21D;62209;47.568;7.558;2023-05-01T04:19:53;11.86;106.59
73875;HTU21D;62209;47.568;7.558;2023-05-01T04:34:59;11.90;104.45
73875;HTU21D;62209;47.568;7.558;2023-05-01T04:50:06;11.81;107.08
73875;HTU21D;62209;47.568;7.558;2023-05-01T05:05:13;11.89;106.09
73875;HTU21D;62209;47.568;7.558;2023-05-01T05:20:18;11.85;106.70
73875;HTU21D;62209;47.568;7.558;2023-05-01T05:35:24;11.82;107.49
73875;HTU21D;62209;47.568;7.558;2023-05-01T05:50:29;11.98;105.24
73875;HTU21D;62209;47.568;7.558;2023-05-01T06:05:35;11.94;107.99
73875;HTU21D;62209;47.568;7.558;2023-05-01T06:20:41;11.98;108.41
73875;HTU21D;62209;47.568;7.558;2023-05-01T06:35:47;12.06;107.77
73875;HTU21D;62209;47.568;7.558;2023-05-01T06:50:52;12.22;106.83
73875;HTU21D;62209;47.568;7.558;2023-05-01T07:05:59;12.34;105.37
73875;HTU21D;62209;47.568;7.558;2023-05-01T07:21:05;12.52;105.01
73875;HTU21D;62209;47.568;7.558;2023-05-01T07:36:12;12.66;106.36
73875;HTU21D;62209;47.568;7.558;2023-05-01T07:51:18;12.82;105.93
73875;HTU21D;62209;47.568;7.558;2023-05-01T08:06:24;13.12;105.61
73875;HTU21D;62209;47.568;7.558;2023-05-01T08:21:30;13.41;104.69
73875;HTU21D;62209;47.568;7.558;2023-05-01T08:36:36;13.78;102.98
73875;HTU21D;62209;47.568;7.558;2023-05-01T08:51:42;13.59;104.23
73875;HTU21D;62209;47.568;7.558;2023-05-01T09:06:50;14.41;101.51
73875;HTU21D;62209;47.568;7.558;2023-05-01T09:21:59;15.41;100.38
73875;HTU21D;62209;47.568;7.558;2023-05-01T09:37:05;15.53;96.75
73875;HTU21D;62209;47.568;7.558;2023-05-01T09:52:13;16.61;95.52
73875;HTU21D;62209;47.568;7.558;2023-05-01T10:07:19;17.73;91.76
73875;HTU21D;62209;47.568;7.558;2023-05-01T10:22:25;16.82;92.47
73875;HTU21D;62209;47.568;7.558;2023-05-01T10:37:33;17.55;88.96
73875;HTU21D;62209;47.568;7.558;2023-05-01T11:08:30;18.55;85.71
73875;HTU21D;62209;47.568;7.558;2023-05-01T11:23:37;18.35;83.83
73875;HTU21D;62209;47.568;7.558;2023-05-01T11:38:49;19.40;79.88
73875;HTU21D;62209;47.568;7.558;2023-05-01T11:53:58;19.27;77.95
73875;HTU21D;62209;47.568;7.558;2023-05-01T12:09:05;19.73;81.75
73875;HTU21D;62209;47.568;7.558;2023-05-01T12:24:11;20.80;77.42
73875;HTU21D;62209;47.568;7.558;2023-05-01T12:39:20;20.10;78.99
73875;HTU21D;62209;47.568;7.558;2023-05-01T12:54:28;19.74;77.89
73875;HTU21D;62209;47.568;7.558;2023-05-01T13:09:34;19.99;75.91
73875;HTU21D;62209;47.568;7.558;2023-05-01T13:24:40;19.23;73.15
73875;HTU21D;62209;47.568;7.558;2023-05-01T13:39:47;18.42;73.25
73875;HTU21D;62209;47.568;7.558;2023-05-01T13:54:54;17.95;76.98
73875;HTU21D;62209;47.568;7.558;2023-05-01T14:10:00;18.32;79.20
73875;HTU21D;62209;47.568;7.558;2023-05-01T14:25:06;17.52;78.59
73875;HTU21D;62209;47.568;7.558;2023-05-01T14:40:22;17.20;81.77
73875;HTU21D;62209;47.568;7.558;2023-05-01T14:55:30;17.41;79.67
73875;HTU21D;62209;47.568;7.558;2023-05-01T15:10:37;18.72;76.60
73875;HTU21D;62209;47.568;7.558;2023-05-01T15:25:42;17.94;76.44
73875;HTU21D;62209;47.568;7.558;2023-05-01T15:40:50;17.35;79.22
73875;HTU21D;62209;47.568;7.558;2023-05-01T15:55:56;16.98;78.30
73875;HTU21D;62209;47.568;7.558;2023-05-01T16:11:01;16.76;79.46
73875;HTU21D;62209;47.568;7.558;2023-05-01T16:26:07;16.79;79.91
73875;HTU21D;62209;47.568;7.558;2023-05-01T16:41:16;16.73;79.48
73875;HTU21D;62209;47.568;7.558;2023-05-01T16:56:22;16.62;80.72
73875;HTU21D;62209;47.568;7.558;2023-05-01T17:11:28;16.44;81.13
73875;HTU21D;62209;47.568;7.558;2023-05-01T17:26:34;16.24;82.07
73875;HTU21D;62209;47.568;7.558;2023-05-01T17:41:40;15.99;83.55
73875;HTU21D;62209;47.568;7.558;2023-05-01T17:56:45;15.81;84.77
73875;HTU21D;62209;47.568;7.558;2023-05-01T18:11:51;15.68;85.29
73875;HTU21D;62209;47.568;7.558;2023-05-01T18:26:56;15.40;86.15
73875;HTU21D;62209;47.568;7.558;2023-05-01T18:42:03;15.11;90.35
73875;HTU21D;62209;47.568;7.558;2023-05-01T18:57:08;14.69;92.73
73875;HTU21D;62209;47.568;7.558;2023-05-01T19:12:14;14.58;92.08
73875;HTU21D;62209;47.568;7.558;2023-05-01T19:27:20;14.37;94.64
73875;HTU21D;62209;47.568;7.558;2023-05-01T19:42:27;14.27;94.52
73875;HTU21D;62209;47.568;7.558;2023-05-01T19:57:33;14.14;93.59
73875;HTU21D;62209;47.568;7.558;2023-05-01T20:12:39;14.21;94.48
73875;HTU21D;62209;47.568;7.558;2023-05-01T20:27:45;14.17;94.52
73875;HTU21D;62209;47.568;7.558;2023-05-01T20:42:51;13.35;94.49
73875;HTU21D;62209;47.568;7.558;2023-05-01T20:57:57;12.72;96.62
73875;HTU21D;62209;47.568;7.558;2023-05-01T21:13:02;12.61;98.00
73875;HTU21D;62209;47.568;7.558;2023-05-01T21:28:10;12.34;101.55
73875;HTU21D;62209;47.568;7.558;2023-05-01T21:43:17;12.71;100.90
73875;HTU21D;62209;47.568;7.558;2023-05-01T21:58:23;12.79;102.18
73875;HTU21D;62209;47.568;7.558;2023-05-01T22:13:28;12.58;101.57
73875;HTU21D;62209;47.568;7.558;2023-05-01T22:28:35;12.52;102.01
73875;HTU21D;62209;47.568;7.558;2023-05-01T22:43:41;12.19;102.73
73875;HTU21D;62209;47.568;7.558;2023-05-01T22:58:46;11.76;104.60
73875;HTU21D;62209;47.568;7.558;2023-05-01T23:13:53;11.81;104.80
73875;HTU21D;62209;47.568;7.558;2023-05-01T23:28:58;11.89;104.86
73875;HTU21D;62209;47.568;7.558;2023-05-01T23:44:04;11.79;104.19
73875;HTU21D;62209;47.568;7.558;2023-05-01T23:59:10;11.76;103.66
